Time;durP1;ratioP1;P1;durP2;ratioP2;P2;SDS_P1;SDS_P2;PMS_P1;PMS_P2;Temp;Humidity;BMP_temperature;BMP_pressure;BME280_temperature;BME280_humidity;BME280_pressure;Samples;Min_cycle;Max_cycle;Signal;HPM_P1;HPM_P2
2023/09/10 00:01:11;;;;;;;9.82;8.65;;;17.40;99.90;;;;;;4976813;28;20030;-38
2023/09/10 00:03:37;;;;;;;10.32;9.00;;;17.30;99.90;;;;;;4981826;28;20026;-36
2023/09/10 00:06:05;;;;;;;7.60;6.80;;;17.20;99.90;;;;;;4980018;28;20034;-38
2023/09/10 00:08:31;;;;;;;7.60;6.63;;;17.00;99.90;;;;;;4981098;28;20084;-36
2023/09/10 00:10:57;;;;;;;8.48;7.60;;;16.80;99.90;;;;;;4980227;28;20065;-33
2023/09/10 00:13:23;;;;;;;6.45;5.85;;;16.80;99.90;;;;;;4981933;28;20040;-34
2023/09/10 00:15:51;;;;;;;6.43;5.82;;;16.70;99.90;;;;;;4992216;28;20038;-41
2023/09/10 00:18:16;;;;;;;9.17;6.23;;;16.70;99.90;;;;;;4995277;28;20036;-36
2023/09/10 00:20:42;;;;;;;8.18;7.15;;;16.70;99.90;;;;;;4995354;28;20277;-39
2023/09/10 00:23:08;;;;;;;8.98;7.75;;;16.70;99.90;;;;;;4992489;28;20152;-38
2023/09/10 00:25:34;;;;;;;8.65;7.55;;;16.70;99.90;;;;;;4993604;28;20136;-36
2023/09/10 00:27:59;;;;;;;9.15;7.70;;;16.80;99.90;;;;;;4990691;28;20090;-35
2023/09/10 00:30:27;;;;;;;9.07;7.03;;;16.90;99.90;;;;;;4994098;28;20468;-40
2023/09/10 00:32:52;;;;;;;9.20;7.55;;;16.90;99.90;;;;;;4992611;28;20025;-36
2023/09/10 00:35:18;;;;;;;8.20;7.30;;;17.00;99.90;;;;;;4993076;28;20030;-34
2023/09/10 00:37:44;;;;;;;9.68;7.78;;;17.00;99.90;;;;;;4968968;28;20084;-32
2023/09/10 00:40:10;;;;;;;10.40;7.53;;;17.00;99.90;;;;;;4996022;28;20030;-34
2023/09/10 00:42:37;;;;;;;9.13;7.57;;;17.00;99.90;;;;;;4997721;28;20033;-35
2023/09/10 00:45:04;;;;;;;10.75;7.63;;;17.10;99.90;;;;;;4992809;28;20041;-35
2023/09/10 00:47:31;;;;;;;9.70;7.53;;;17.10;99.90;;;;;;4993190;28;20038;-33
2023/09/10 00:49:56;;;;;;;10.27;7.57;;;17.10;99.90;;;;;;4987103;28;20037;-35
2023/09/10 00:52:22;;;;;;;7.78;6.97;;;17.10;99.90;;;;;;4989290;28;20049;-33
2023/09/10 00:54:49;;;;;;;8.57;6.53;;;17.10;99.90;;;;;;4992680;28;20021;-40
2023/09/10 00:57:16;;;;;;;8.73;7.13;;;17.10;99.90;;;;;;4990418;28;20052;-41
2023/09/10 00:59:42;;;;;;;8.38;7.45;;;17.00;99.90;;;;;;4992752;28;20029;-35
2023/09/10 01:02:09;;;;;;;8.27;6.88;;;16.90;99.90;;;;;;4991494;28;20061;-36
2023/09/10 01:04:34;;;;;;;5.72;5.13;;;16.80;99.90;;;;;;4989141;28;20030;-42
2023/09/10 01:07:01;;;;;;;6.50;5.00;;;16.80;99.90;;;;;;4992343;28;20033;-41
2023/09/10 01:09:27;;;;;;;7.90;6.30;;;16.80;99.90;;;;;;4998944;28;20042;-36
2023/09/10 01:12:09;;;;;;;7.60;6.80;;;16.80;99.90;;;;;;4991681;28;20376;-34
2023/09/10 01:14:41;;;;;;;8.32;7.13;;;16.70;99.90;;;;;;4992196;28;20038;-38
2023/09/10 01:17:20;;;;;;;8.70;7.00;;;16.60;99.90;;;;;;4990880;28;20026;-41
2023/09/10 01:19:51;;;;;;;8.18;6.88;;;16.60;99.90;;;;;;4983774;28;20091;-37
2023/09/10 01:22:34;;;;;;;8.10;7.22;;;16.60;99.90;;;;;;4983107;28;20068;-34
2023/09/10 01:25:00;;;;;;;8.98;7.18;;;16.60;99.90;;;;;;4992127;28;20037;-34
2023/09/10 01:27:26;;;;;;;8.13;7.18;;;16.70;99.90;;;;;;4990504;28;20185;-39
2023/09/10 01:29:51;;;;;;;9.18;6.88;;;16.70;99.90;;;;;;4992508;28;20390;-39
2023/09/10 01:32:29;;;;;;;9.60;7.00;;;16.70;99.90;;;;;;4990712;28;20048;-40
2023/09/10 01:34:59;;;;;;;;;;;16.60;99.90;;;;;;4994878;28;20030;-41
2023/09/10 01:37:40;;;;;;;8.77;6.53;;;16.60;99.90;;;;;;4991094;28;19917;-38
2023/09/10 01:40:09;;;;;;;9.13;6.45;;;16.60;99.90;;;;;;4972369;28;20033;-34
2023/09/10 01:42:35;;;;;;;7.47;6.72;;;16.60;99.90;;;;;;4991501;28;20034;-41
2023/09/10 01:45:03;;;;;;;6.85;6.15;;;16.60;99.90;;;;;;4990440;28;20046;-36
2023/09/10 01:47:28;;;;;;;6.00;5.40;;;16.60;99.90;;;;;;4993513;28;20108;-37
2023/09/10 01:49:54;;;;;;;4.70;4.38;;;16.60;99.90;;;;;;4983662;28;20041;-34
2023/09/10 01:52:20;;;;;;;5.97;4.78;;;16.50;99.90;;;;;;4986855;28;20064;-41
2023/09/10 01:54:45;;;;;;;5.55;5.05;;;16.50;99.90;;;;;;4992587;28;20397;-35
2023/09/10 01:57:11;;;;;;;5.15;4.65;;;16.50;99.90;;;;;;4991146;28;20698;-33
2023/09/10 01:59:36;;;;;;;5.78;5.20;;;16.50;99.90;;;;;;5001934;28;20022;-33
2023/09/10 02:02:03;;;;;;;6.13;5.55;;;16.50;99.90;;;;;;4997952;28;20156;-33
2023/09/10 02:04:29;;;;;;;5.70;5.05;;;16.50;99.90;;;;;;4994366;28;20069;-36
2023/09/10 02:06:54;;;;;;;6.00;5.40;;;16.50;99.90;;;;;;4993178;28;20049;-38
2023/09/10 02:09:20;;;;;;;5.93;5.32;;;16.50;99.90;;;;;;4991092;28;20121;-36
2023/09/10 02:11:46;;;;;;;7.50;5.50;;;16.40;99.90;;;;;;4976048;28;20100;-35
2023/09/10 02:14:12;;;;;;;7.50;6.60;;;16.40;99.90;;;;;;4987095;28;20026;-35
2023/09/10 02:16:37;;;;;;;7.40;6.43;;;16.40;99.90;;;;;;4990476;28;20084;-36
2023/09/10 02:19:03;;;;;;;9.20;6.82;;;16.40;99.90;;;;;;4991258;28;20072;-32
2023/09/10 02:21:29;;;;;;;8.65;7.10;;;16.40;99.90;;;;;;4973577;28;20029;-33
2023/09/10 02:23:54;;;;;;;7.65;6.72;;;16.20;99.90;;;;;;4985828;28;20112;-34
2023/09/10 02:26:20;;;;;;;8.65;7.40;;;16.20;99.90;;;;;;4985097;28;20038;-33
2023/09/10 02:28:46;;;;;;;7.25;6.55;;;16.10;99.90;;;;;;5005827;28;20100;-32
2023/09/10 02:31:11;;;;;;;7.72;6.25;;;16.10;99.90;;;;;;4998261;28;20062;-35
2023/09/10 02:33:37;;;;;;;7.45;6.28;;;16.10;99.90;;;;;;5005494;28;20489;-33
2023/09/10 02:36:03;;;;;;;7.35;5.38;;;15.90;99.90;;;;;;5007287;28;20030;-34
2023/09/10 02:38:29;;;;;;;5.45;4.90;;;15.90;99.90;;;;;;4993755;28;20049;-35
2023/09/10 02:40:55;;;;;;;8.10;7.07;;;15.90;99.90;;;;;;5005400;28;20381;-32
2023/09/10 02:43:21;;;;;;;7.75;6.93;;;15.90;99.90;;;;;;4993568;28;20325;-33
2023/09/10 02:45:47;;;;;;;8.77;6.65;;;15.80;99.90;;;;;;5005323;28;20088;-32
2023/09/10 02:48:13;;;;;;;8.20;6.53;;;15.70;99.90;;;;;;5005808;28;20496;-33
2023/09/10 02:50:39;;;;;;;7.68;6.85;;;15.70;99.90;;;;;;5007643;28;20163;-32
2023/09/10 02:53:05;;;;;;;9.40;7.32;;;15.70;99.90;;;;;;5005888;28;20038;-32
2023/09/10 02:55:31;;;;;;;10.50;7.53;;;15.70;99.90;;;;;;4988292;28;20076;-41
2023/09/10 02:57:56;;;;;;;9.02;7.35;;;15.80;99.90;;;;;;5008928;28;20026;-33
2023/09/10 03:00:25;;;;;;;9.65;7.40;;;15.80;99.90;;;;;;5004978;28;20053;-40
2023/09/10 03:02:53;;;;;;;7.68;6.65;;;15.70;99.90;;;;;;5010491;28;20072;-41
2023/09/10 03:05:18;;;;;;;9.95;7.50;;;15.60;99.90;;;;;;5013268;28;20034;-40
2023/09/10 03:07:44;;;;;;;7.20;6.57;;;15.60;99.90;;;;;;5008091;28;20481;-38
2023/09/10 03:10:10;;;;;;;6.78;5.85;;;15.50;99.90;;;;;;4993774;28;20112;-39
2023/09/10 03:12:36;;;;;;;5.55;4.95;;;15.50;99.90;;;;;;5010988;28;20057;-38
2023/09/10 03:15:02;;;;;;;5.13;4.63;;;15.50;99.90;;;;;;5010094;28;20033;-39
2023/09/10 03:17:28;;;;;;;4.68;4.28;;;15.30;99.90;;;;;;5011399;28;20033;-40
2023/09/10 03:19:53;;;;;;;4.60;4.20;;;15.20;99.90;;;;;;5005319;28;20736;-39
2023/09/10 03:22:19;;;;;;;4.70;4.13;;;15.20;99.90;;;;;;5010867;28;20041;-40
2023/09/10 03:24:45;;;;;;;5.03;4.63;;;15.30;99.90;;;;;;5004260;28;20040;-40
2023/09/10 03:27:10;;;;;;;5.07;4.68;;;15.40;99.90;;;;;;5007652;28;20034;-38
2023/09/10 03:29:36;;;;;;;4.82;4.43;;;15.40;99.90;;;;;;4990915;28;20044;-38
2023/09/10 03:32:04;;;;;;;4.70;4.30;;;15.40;99.90;;;;;;5011452;28;20096;-37
2023/09/10 03:34:31;;;;;;;5.30;4.80;;;15.40;99.90;;;;;;5008763;28;20358;-41
2023/09/10 03:36:57;;;;;;;5.78;5.18;;;15.40;99.90;;;;;;5011132;28;20499;-38
2023/09/10 03:39:23;;;;;;;5.55;5.05;;;15.50;99.90;;;;;;4986563;28;20029;-40
2023/09/10 03:41:48;;;;;;;5.50;5.00;;;15.50;99.90;;;;;;5010013;28;20033;-40
2023/09/10 03:44:14;;;;;;;5.88;5.05;;;15.50;99.90;;;;;;5008225;28;20022;-38
2023/09/10 03:46:39;;;;;;;5.70;5.20;;;15.50;99.90;;;;;;5005200;28;20037;-40
2023/09/10 03:49:05;;;;;;;6.10;5.20;;;15.50;99.90;;;;;;5002008;28;20096;-39
2023/09/10 03:51:31;;;;;;;5.68;5.10;;;15.50;99.90;;;;;;4993230;28;20150;-37
2023/09/10 03:53:56;;;;;;;5.30;4.80;;;15.50;99.90;;;;;;4990905;28;20172;-35
2023/09/10 03:56:23;;;;;;;6.50;5.90;;;15.50;99.90;;;;;;4986211;28;20076;-34
2023/09/10 03:58:49;;;;;;;6.35;5.72;;;15.50;99.90;;;;;;4991633;28;20394;-39
2023/09/10 04:01:15;;;;;;;6.07;5.47;;;15.60;99.90;;;;;;5005339;28;20040;-37
2023/09/10 04:03:40;;;;;;;6.15;5.55;;;15.50;99.90;;;;;;4999728;28;20022;-39
2023/09/10 04:06:06;;;;;;;6.78;6.07;;;15.50;99.90;;;;;;5008545;28;20536;-39
2023/09/10 04:08:31;;;;;;;6.97;6.28;;;15.50;99.90;;;;;;5008824;28;20030;-37
2023/09/10 04:10:57;;;;;;;6.80;6.10;;;15.50;99.90;;;;;;4991869;28;20123;-33
2023/09/10 04:13:22;;;;;;;6.68;6.00;;;15.50;99.90;;;;;;5008154;28;20026;-39
2023/09/10 04:15:48;;;;;;;8.38;6.75;;;15.50;99.90;;;;;;4994631;28;20029;-32
2023/09/10 04:18:14;;;;;;;6.90;6.20;;;15.50;99.90;;;;;;5009466;28;20034;-32
2023/09/10 04:20:40;;;;;;;6.32;5.72;;;15.40;99.90;;;;;;5007467;28;20075;-32
2023/09/10 04:23:05;;;;;;;4.88;4.40;;;15.40;99.90;;;;;;5003956;28;20036;-37
2023/09/10 04:25:31;;;;;;;5.70;4.50;;;15.10;99.90;;;;;;5003103;28;20029;-36
2023/09/10 04:27:57;;;;;;;5.32;4.82;;;14.90;99.90;;;;;;4984019;28;20134;-35
2023/09/10 04:30:23;;;;;;;4.70;4.30;;;14.90;99.90;;;;;;4998404;28;20045;-32
2023/09/10 04:32:48;;;;;;;6.00;4.35;;;14.90;99.90;;;;;;5011748;28;20141;-33
2023/09/10 04:35:14;;;;;;;4.90;4.50;;;14.90;99.90;;;;;;5010213;28;20556;-33
2023/09/10 04:37:40;;;;;;;5.30;4.80;;;15.00;99.90;;;;;;5006073;28;20115;-33
2023/09/10 04:40:07;;;;;;;5.68;5.05;;;15.00;99.90;;;;;;4992920;28;20060;-36
2023/09/10 04:42:33;;;;;;;6.18;5.57;;;15.10;99.90;;;;;;5009358;28;20026;-33
2023/09/10 04:44:59;;;;;;;6.28;5.63;;;15.10;99.90;;;;;;5005331;28;20096;-34
2023/09/10 04:47:25;;;;;;;6.32;5.72;;;15.10;99.90;;;;;;5011867;28;20030;-31
2023/09/10 04:49:50;;;;;;;6.32;5.72;;;15.10;99.90;;;;;;5013814;28;20038;-34
2023/09/10 04:52:16;;;;;;;7.18;5.95;;;15.20;99.90;;;;;;5003793;28;20731;-36
2023/09/10 04:54:42;;;;;;;6.82;6.10;;;15.20;99.90;;;;;;4997547;28;20026;-33
2023/09/10 04:57:11;;;;;;;7.72;6.38;;;15.20;99.90;;;;;;4976465;28;20047;-33
2023/09/10 04:59:36;;;;;;;7.18;6.47;;;15.10;99.90;;;;;;4975430;28;20037;-34
2023/09/10 05:02:03;;;;;;;7.43;6.55;;;15.10;99.90;;;;;;4992938;28;20516;-33
2023/09/10 05:04:29;;;;;;;6.43;5.82;;;15.10;99.90;;;;;;4993009;28;20433;-32
2023/09/10 05:06:54;;;;;;;10.52;6.90;;;15.10;99.90;;;;;;4995936;28;20038;-37
2023/09/10 05:09:20;;;;;;;8.13;7.32;;;15.00;99.90;;;;;;4989006;28;20034;-37
2023/09/10 05:11:46;;;;;;;7.00;6.30;;;14.90;99.90;;;;;;4990596;28;20162;-33
2023/09/10 05:14:11;;;;;;;7.63;6.90;;;14.80;99.90;;;;;;4994306;28;21445;-38
2023/09/10 05:16:37;;;;;;;6.88;6.18;;;14.70;99.90;;;;;;4992266;28;20034;-38
2023/09/10 05:19:03;;;;;;;8.60;6.25;;;14.70;99.90;;;;;;4985770;28;20030;-40
2023/09/10 05:21:28;;;;;;;6.70;6.03;;;14.60;99.90;;;;;;4992618;28;20100;-39
2023/09/10 05:23:54;;;;;;;6.82;6.13;;;14.60;99.90;;;;;;4993199;28;20045;-35
2023/09/10 05:26:21;;;;;;;6.70;6.10;;;14.50;99.90;;;;;;4974533;28;20131;-37
2023/09/10 05:28:47;;;;;;;6.85;6.15;;;14.50;99.90;;;;;;4973967;28;20045;-40
2023/09/10 05:31:13;;;;;;;6.50;5.90;;;14.50;99.90;;;;;;4994558;28;21016;-35
2023/09/10 05:33:38;;;;;;;6.57;5.97;;;14.50;99.90;;;;;;4992971;28;21823;-39
2023/09/10 05:36:04;;;;;;;8.10;6.88;;;14.60;99.90;;;;;;4991930;28;20420;-35
2023/09/10 05:38:30;;;;;;;7.68;6.88;;;14.60;99.90;;;;;;4993312;28;20138;-41
2023/09/10 05:41:01;;;;;;;8.50;7.57;;;14.70;99.90;;;;;;4973749;28;20037;-40
2023/09/10 05:43:29;;;;;;;9.00;7.18;;;14.80;99.90;;;;;;4991948;28;21003;-37
2023/09/10 05:45:55;;;;;;;7.15;6.43;;;14.80;99.90;;;;;;4993485;28;20029;-41
2023/09/10 05:48:22;;;;;;;7.63;6.93;;;15.00;99.90;;;;;;4989929;28;21081;-41
2023/09/10 05:50:48;;;;;;;8.32;7.25;;;15.10;99.90;;;;;;4991291;28;20795;-39
2023/09/10 05:53:13;;;;;;;11.35;8.07;;;15.20;99.90;;;;;;4992950;28;20034;-38
2023/09/10 05:55:40;;;;;;;12.07;8.57;;;15.20;99.90;;;;;;4991309;28;20379;-40
2023/09/10 05:58:07;;;;;;;11.27;8.45;;;15.20;99.90;;;;;;4992689;28;20668;-41
2023/09/10 06:00:33;;;;;;;9.85;8.63;;;15.30;99.90;;;;;;4990253;28;20040;-34
2023/09/10 06:02:58;;;;;;;11.13;9.02;;;15.30;99.90;;;;;;4974258;28;20505;-35
2023/09/10 06:05:24;;;;;;;11.00;9.10;;;15.30;99.90;;;;;;4989842;28;20065;-39
2023/09/10 06:07:50;;;;;;;10.18;8.43;;;15.30;99.90;;;;;;4992371;28;20034;-38
2023/09/10 06:10:15;;;;;;;11.32;8.23;;;15.40;99.90;;;;;;4991103;28;20117;-39
2023/09/10 06:12:43;;;;;;;10.07;8.43;;;15.40;99.90;;;;;;4992651;28;20054;-37
2023/09/10 06:15:08;;;;;;;11.55;8.90;;;15.50;99.90;;;;;;4989723;28;20096;-35
2023/09/10 06:17:35;;;;;;;10.75;8.63;;;15.60;99.90;;;;;;4973961;28;20133;-38
2023/09/10 06:20:05;;;;;;;10.05;8.85;;;15.70;99.90;;;;;;4982729;28;22093;-33
2023/09/10 06:22:31;;;;;;;10.85;8.57;;;15.80;99.90;;;;;;4976134;28;20040;-40
2023/09/10 06:24:57;;;;;;;13.88;9.35;;;15.90;99.90;;;;;;4976208;28;20041;-35
2023/09/10 06:27:22;;;;;;;12.73;9.45;;;16.00;99.90;;;;;;4975833;28;20509;-35
2023/09/10 06:29:48;;;;;;;11.07;9.88;;;16.20;99.90;;;;;;4976959;28;20042;-36
2023/09/10 06:32:14;;;;;;;11.32;9.60;;;16.20;99.90;;;;;;4975919;28;20049;-38
2023/09/10 06:34:39;;;;;;;12.23;9.75;;;16.40;99.90;;;;;;4976399;28;20092;-37
2023/09/10 06:37:05;;;;;;;12.80;10.23;;;16.50;99.90;;;;;;4991067;28;20523;-36
2023/09/10 06:39:38;;;;;;;12.80;10.82;;;16.60;99.90;;;;;;4969799;28;20037;-33
2023/09/10 06:42:06;;;;;;;17.25;11.52;;;16.70;99.90;;;;;;4988472;28;20480;-38
2023/09/10 06:44:32;;;;;;;15.55;11.82;;;16.80;99.90;;;;;;4989445;28;20438;-37
2023/09/10 06:46:59;;;;;;;14.10;12.13;;;17.00;99.90;;;;;;4983758;28;20036;-34
2023/09/10 06:49:25;;;;;;;17.88;11.75;;;17.00;99.90;;;;;;4974894;28;20715;-41
2023/09/10 06:51:50;;;;;;;16.38;13.23;;;17.10;99.90;;;;;;4981048;28;20037;-41
2023/09/10 06:54:16;;;;;;;16.00;12.43;;;17.30;99.90;;;;;;4998751;28;20029;-36
2023/09/10 06:56:42;;;;;;;15.05;12.32;;;17.50;99.90;;;;;;4987356;28;20032;-38
2023/09/10 06:59:08;;;;;;;17.05;12.07;;;17.50;99.90;;;;;;4997876;28;20436;-40
2023/09/10 07:01:37;;;;;;;16.60;12.55;;;17.70;99.90;;;;;;5002542;28;20488;-39
2023/09/10 07:04:18;;;;;;;17.42;12.82;;;17.80;99.90;;;;;;5011726;28;20037;-42
2023/09/10 07:06:45;;;;;;;18.63;13.55;;;18.00;99.90;;;;;;5002853;28;20436;-38
2023/09/10 07:09:11;;;;;;;17.95;13.80;;;18.00;99.90;;;;;;4998643;28;20047;-38
2023/09/10 07:11:37;;;;;;;16.13;13.25;;;18.10;99.90;;;;;;4982018;28;20038;-41
2023/09/10 07:14:02;;;;;;;18.90;13.35;;;18.30;99.90;;;;;;5004624;28;20044;-41
2023/09/10 07:16:32;;;;;;;19.23;15.23;;;18.40;99.90;;;;;;5014985;28;20026;-40
2023/09/10 07:18:58;;;;;;;20.75;14.45;;;18.50;99.90;;;;;;4989089;28;20406;-33
2023/09/10 07:21:25;;;;;;;21.33;15.45;;;18.60;99.90;;;;;;4995004;28;20544;-38
2023/09/10 07:23:52;;;;;;;22.43;16.17;;;18.80;99.90;;;;;;4996045;28;20033;-42
2023/09/10 07:26:21;;;;;;;20.40;14.27;;;19.00;99.90;;;;;;5001581;28;20151;-42
2023/09/10 07:28:48;;;;;;;19.48;15.77;;;19.10;99.90;;;;;;5003385;28;20050;-41
2023/09/10 07:31:15;;;;;;;19.65;14.60;;;19.30;99.90;;;;;;4978525;28;20041;-41
2023/09/10 07:33:42;;;;;;;19.45;14.90;;;19.50;99.90;;;;;;4986682;28;20029;-33
2023/09/10 07:36:08;;;;;;;17.65;14.77;;;19.60;99.90;;;;;;4996234;28;20037;-32
2023/09/10 07:38:34;;;;;;;19.75;15.68;;;19.70;99.90;;;;;;4986285;28;20034;-31
2023/09/10 07:41:00;;;;;;;19.92;15.00;;;20.00;99.90;;;;;;4983634;28;20363;-32
2023/09/10 07:43:27;;;;;;;20.17;16.08;;;20.20;99.90;;;;;;4997541;28;20049;-41
2023/09/10 07:45:53;;;;;;;18.98;15.10;;;20.50;99.90;;;;;;4990572;28;20038;-41
2023/09/10 07:48:22;;;;;;;18.13;14.95;;;20.60;99.90;;;;;;4986805;28;20072;-41
2023/09/10 07:50:56;;;;;;;19.83;14.82;;;20.60;99.90;;;;;;4985437;28;20468;-38
2023/09/10 07:53:23;;;;;;;16.08;13.60;;;20.90;99.90;;;;;;5008329;28;20091;-39
2023/09/10 07:55:49;;;;;;;17.70;14.00;;;21.00;99.90;;;;;;5001431;28;20822;-30
2023/09/10 07:58:15;;;;;;;16.50;13.32;;;21.20;99.90;;;;;;4990389;28;20030;-33
2023/09/10 08:00:42;;;;;;;18.20;14.45;;;21.30;99.90;;;;;;4984946;28;20030;-33
2023/09/10 08:03:09;;;;;;;16.48;14.13;;;21.50;99.90;;;;;;4987149;28;20084;-32
2023/09/10 08:05:35;;;;;;;19.25;15.25;;;21.60;99.90;;;;;;4988157;28;20572;-32
2023/09/10 08:08:04;;;;;;;15.55;13.77;;;21.90;99.90;;;;;;4989113;28;20120;-34
2023/09/10 08:10:32;;;;;;;18.58;14.38;;;22.10;99.90;;;;;;4988448;28;20033;-33
2023/09/10 08:12:58;;;;;;;15.98;13.25;;;22.30;99.90;;;;;;4992068;28;20459;-37
2023/09/10 08:15:25;;;;;;;13.68;12.00;;;22.50;99.90;;;;;;4990853;28;20035;-33
2023/09/10 08:17:53;;;;;;;13.70;11.88;;;22.60;99.90;;;;;;5001266;28;20460;-32
2023/09/10 08:20:20;;;;;;;14.40;11.63;;;22.60;99.90;;;;;;4983879;28;20541;-30
2023/09/10 08:22:46;;;;;;;16.23;13.18;;;22.80;99.90;;;;;;5004896;28;20528;-32
2023/09/10 08:25:13;;;;;;;14.45;12.50;;;23.00;99.90;;;;;;4994197;28;20042;-31
2023/09/10 08:27:40;;;;;;;13.65;12.05;;;23.10;99.90;;;;;;4991665;28;20055;-31
2023/09/10 08:30:10;;;;;;;16.15;13.18;;;23.20;99.90;;;;;;4986104;28;20065;-32
2023/09/10 08:32:40;;;;;;;16.17;13.68;;;23.40;99.90;;;;;;4987141;28;20444;-30
2023/09/10 08:35:06;;;;;;;15.45;13.63;;;23.50;99.90;;;;;;4990166;28;20030;-30
2023/09/10 08:37:32;;;;;;;16.17;13.25;;;23.50;99.90;;;;;;4990888;28;20038;-36
2023/09/10 08:39:58;;;;;;;14.82;12.10;;;23.50;99.90;;;;;;4994246;28;20036;-36
2023/09/10 08:42:27;;;;;;;12.48;11.05;;;23.70;99.90;;;;;;4983808;28;20027;-31
2023/09/10 08:44:56;;;;;;;14.30;12.82;;;24.00;99.90;;;;;;4973761;28;20038;-30
2023/09/10 08:47:24;;;;;;;15.43;12.70;;;24.30;99.90;;;;;;4973047;28;21056;-36
2023/09/10 08:49:58;;;;;;;14.05;12.65;;;24.20;99.90;;;;;;4974835;28;20061;-31
2023/09/10 08:52:28;;;;;;;15.13;12.00;;;24.50;99.90;;;;;;4985078;28;20521;-31
2023/09/10 08:54:54;;;;;;;14.48;12.30;;;24.50;99.90;;;;;;4987560;28;20039;-33
2023/09/10 08:57:20;;;;;;;13.70;12.30;;;24.70;99.90;;;;;;4988899;28;20022;-31
2023/09/10 08:59:48;;;;;;;11.93;10.70;;;24.90;99.90;;;;;;4995481;28;20029;-34
2023/09/10 09:02:14;;;;;;;12.63;11.32;;;25.20;99.90;;;;;;4983779;28;20097;-33
2023/09/10 09:04:40;;;;;;;13.57;12.15;;;25.20;99.90;;;;;;4986358;28;20039;-33
2023/09/10 09:07:11;;;;;;;13.95;10.77;;;25.00;99.90;;;;;;4985100;28;20042;-33
2023/09/10 09:09:41;;;;;;;11.23;10.02;;;24.90;99.90;;;;;;4980865;28;20502;-32
2023/09/10 09:12:11;;;;;;;11.23;9.73;;;25.20;99.90;;;;;;4994901;28;20080;-34
2023/09/10 09:14:42;;;;;;;11.35;9.90;;;25.60;99.90;;;;;;4988258;28;20727;-40
2023/09/10 09:17:11;;;;;;;11.40;10.20;;;25.80;99.90;;;;;;4983890;28;20405;-35
2023/09/10 09:19:40;;;;;;;10.73;9.73;;;25.90;99.90;;;;;;4992251;28;20046;-39
2023/09/10 09:22:07;;;;;;;10.95;9.85;;;25.80;99.90;;;;;;4989106;28;20068;-39
2023/09/10 09:24:33;;;;;;;;;;;25.80;99.90;;;;;;4992977;28;20033;-39
2023/09/10 09:27:00;;;;;;;9.75;8.85;;;26.10;99.90;;;;;;4984949;28;20009;-39
2023/09/10 09:29:30;;;;;;;10.55;9.52;;;26.20;99.90;;;;;;5004226;28;20116;-39
2023/09/10 09:31:56;;;;;;;10.73;9.73;;;26.60;99.90;;;;;;5003886;28;20049;-39
2023/09/10 09:34:21;;;;;;;12.18;10.32;;;26.50;99.90;;;;;;5004662;28;20493;-40
2023/09/10 09:36:51;;;;;;;11.13;10.13;;;26.20;99.90;;;;;;5005504;28;20092;-40
2023/09/10 09:39:18;;;;;;;12.18;10.50;;;26.10;99.90;;;;;;5008259;28;20472;-39
2023/09/10 09:44:19;;;;;;;10.68;9.57;;;26.20;99.90;;;;;;5094217;27;21031;-37
2023/09/10 09:46:45;;;;;;;11.40;9.60;;;26.30;99.90;;;;;;5083264;28;20401;-37
2023/09/10 09:49:11;;;;;;;10.63;9.63;;;26.20;99.90;;;;;;5077331;28;20500;-38
2023/09/10 09:51:42;;;;;;;11.15;9.95;;;26.40;99.90;;;;;;5082163;28;20020;-38
2023/09/10 09:54:08;;;;;;;10.60;9.50;;;26.50;99.90;;;;;;5080915;28;20039;-35
2023/09/10 09:56:35;;;;;;;12.70;9.93;;;26.90;99.90;;;;;;5072570;28;20036;-38
2023/09/10 09:59:02;;;;;;;10.52;9.52;;;26.90;99.90;;;;;;5076408;28;20388;-34
2023/09/10 10:01:27;;;;;;;10.40;9.35;;;27.00;99.90;;;;;;5068085;27;20124;-35
2023/09/10 10:03:53;;;;;;;11.30;10.18;;;27.10;99.90;;;;;;5051091;28;20104;-38
2023/09/10 10:06:19;;;;;;;9.63;8.73;;;27.10;99.90;;;;;;5057847;28;20780;-39
2023/09/10 10:08:49;;;;;;;9.77;8.82;;;27.10;99.90;;;;;;5049532;28;20032;-39
2023/09/10 10:11:31;;;;;;;10.00;9.10;;;27.20;99.90;;;;;;5060814;28;20036;-42
2023/09/10 10:14:01;;;;;;;9.60;8.65;;;27.30;99.90;;;;;;5090094;28;20497;-39
2023/09/10 10:16:28;;;;;;;9.95;8.60;;;27.50;99.90;;;;;;5064264;28;20029;-42
2023/09/10 10:18:55;;;;;;;9.82;8.82;;;27.80;99.90;;;;;;5078371;28;20036;-39
2023/09/10 10:21:25;;;;;;;9.30;8.48;;;27.90;99.90;;;;;;5096178;28;20045;-42
2023/09/10 10:23:52;;;;;;;9.20;8.30;;;27.70;99.90;;;;;;5061155;28;20056;-40
2023/09/10 10:26:18;;;;;;;9.02;8.23;;;27.60;99.90;;;;;;5051106;28;20607;-42
2023/09/10 10:28:48;;;;;;;9.55;8.23;;;27.80;99.90;;;;;;5056389;28;20120;-38
2023/09/10 10:31:21;;;;;;;8.75;7.90;;;27.80;99.90;;;;;;5063804;28;20040;-40
2023/09/10 10:33:57;;;;;;;9.13;8.32;;;27.80;99.90;;;;;;5081486;28;20128;-35
2023/09/10 10:36:58;;;;;;;8.07;7.27;;;27.80;99.90;;;;;;5085171;28;20029;-41
2023/09/10 10:39:39;;;;;;;7.47;6.78;;;27.80;99.90;;;;;;5052392;28;20029;-40
2023/09/10 10:42:08;;;;;;;8.32;7.35;;;27.60;99.90;;;;;;5057166;28;20379;-34
2023/09/10 10:44:35;;;;;;;8.27;7.05;;;27.60;99.90;;;;;;5062588;28;20093;-40
2023/09/10 10:47:22;;;;;;;7.97;7.17;;;27.80;99.90;;;;;;5060672;28;20115;-35
2023/09/10 10:49:53;;;;;;;7.30;6.70;;;28.00;99.90;;;;;;5056481;28;20031;-39
2023/09/10 10:52:31;;;;;;;7.80;7.10;;;28.10;99.90;;;;;;5057272;28;20067;-40
2023/09/10 10:54:57;;;;;;;7.97;7.28;;;28.40;99.90;;;;;;5050342;28;20034;-39
2023/09/10 10:57:25;;;;;;;7.75;6.95;;;28.50;99.90;;;;;;5040208;28;20025;-42
2023/09/10 10:59:51;;;;;;;8.07;7.30;;;28.70;99.90;;;;;;5041343;28;20644;-38
2023/09/10 11:02:23;;;;;;;8.57;7.38;;;28.50;99.90;;;;;;5039666;28;20741;-38
2023/09/10 11:04:57;;;;;;;10.90;6.90;;;28.40;99.90;;;;;;5040225;28;20036;-41
2023/09/10 11:07:22;;;;;;;7.45;6.60;;;28.90;99.90;;;;;;5042531;28;20038;-39
2023/09/10 11:09:49;;;;;;;7.30;6.60;;;29.20;99.90;;;;;;5041744;28;20028;-40
2023/09/10 11:12:15;;;;;;;8.73;6.95;;;29.40;99.90;;;;;;5049990;28;20033;-36
2023/09/10 11:14:59;;;;;;;7.43;6.65;;;29.20;99.90;;;;;;5045689;28;20110;-40
2023/09/10 11:17:32;;;;;;;7.70;7.00;;;28.80;99.90;;;;;;5044413;28;20047;-40
2023/09/10 11:19:59;;;;;;;7.65;6.45;;;28.80;99.90;;;;;;5039307;28;20039;-36
2023/09/10 11:22:25;;;;;;;8.67;6.03;;;28.80;99.90;;;;;;5045655;28;20041;-40
2023/09/10 11:25:17;;;;;;;7.88;7.18;;;28.90;99.90;;;;;;5044571;28;20033;-40
2023/09/10 11:27:42;;;;;;;8.27;7.47;;;28.90;99.90;;;;;;5041479;28;20514;-39
2023/09/10 11:30:13;;;;;;;9.80;7.28;;;28.90;99.90;;;;;;5036558;28;20040;-40
2023/09/10 11:32:43;;;;;;;7.97;7.18;;;28.90;99.90;;;;;;5039647;28;20525;-38
2023/09/10 11:35:17;;;;;;;8.50;7.30;;;28.70;99.90;;;;;;5040562;28;20022;-31
2023/09/10 11:37:51;;;;;;;7.45;6.65;;;28.80;99.90;;;;;;5043468;28;20055;-30
2023/09/10 11:40:20;;;;;;;7.32;6.63;;;29.00;99.90;;;;;;5040148;28;20029;-33
2023/09/10 11:42:47;;;;;;;6.57;5.97;;;29.00;99.90;;;;;;5046119;28;20040;-33
2023/09/10 11:45:13;;;;;;;7.63;6.93;;;28.80;99.90;;;;;;5044428;28;20029;-31
2023/09/10 11:47:47;;;;;;;6.85;6.10;;;28.90;99.90;;;;;;5048836;28;20537;-30
2023/09/10 11:50:19;;;;;;;6.82;6.20;;;28.70;99.90;;;;;;5044668;28;20584;-31
2023/09/10 11:52:44;;;;;;;7.13;6.35;;;28.70;99.90;;;;;;5042703;28;20047;-32
2023/09/10 11:55:10;;;;;;;6.97;6.38;;;28.60;99.90;;;;;;5042709;28;20479;-32
2023/09/10 11:57:37;;;;;;;6.53;5.90;;;28.40;99.90;;;;;;5041616;28;20031;-31
2023/09/10 12:00:05;;;;;;;7.70;6.50;;;28.50;99.90;;;;;;5040102;28;20040;-32
2023/09/10 12:02:31;;;;;;;7.68;6.30;;;28.60;99.90;;;;;;5048100;28;20042;-30
2023/09/10 12:04:59;;;;;;;7.30;6.65;;;28.90;99.90;;;;;;5045446;28;20393;-31
2023/09/10 12:07:25;;;;;;;7.68;6.90;;;29.10;99.90;;;;;;5046079;28;20060;-32
2023/09/10 12:09:51;;;;;;;7.80;7.10;;;28.90;99.90;;;;;;5043799;28;20041;-31
2023/09/10 12:12:27;;;;;;;7.40;6.50;;;28.70;99.90;;;;;;5044607;28;20036;-32
2023/09/10 12:14:53;;;;;;;8.32;7.45;;;28.50;99.90;;;;;;5032668;28;20025;-32
2023/09/10 12:17:19;;;;;;;7.85;6.90;;;28.50;99.90;;;;;;5066635;28;20032;-31
2023/09/10 12:19:45;;;;;;;7.05;6.40;;;28.70;99.90;;;;;;5047043;28;20037;-31
2023/09/10 12:22:14;;;;;;;8.00;7.30;;;29.00;99.90;;;;;;5057850;28;20029;-32
2023/09/10 12:24:41;;;;;;;7.40;6.80;;;29.00;99.90;;;;;;5056685;28;20039;-31
2023/09/10 12:27:07;;;;;;;8.63;6.88;;;29.20;99.90;;;;;;5041769;28;20582;-33
2023/09/10 12:29:34;;;;;;;7.60;6.47;;;29.20;99.90;;;;;;5038316;28;20107;-32
2023/09/10 12:31:59;;;;;;;6.65;6.00;;;29.00;99.90;;;;;;5035826;28;20114;-33
2023/09/10 12:34:26;;;;;;;8.02;5.93;;;28.80;99.90;;;;;;5035289;28;20534;-31
2023/09/10 12:36:52;;;;;;;6.25;5.65;;;28.90;99.90;;;;;;5036995;28;20455;-31
2023/09/10 12:39:23;;;;;;;6.25;5.47;;;28.90;99.90;;;;;;5039263;28;20090;-32
2023/09/10 12:42:01;;;;;;;13.00;6.43;;;29.00;99.90;;;;;;5050593;28;20020;-31
2023/09/10 12:44:33;;;;;;;6.47;5.88;;;29.00;99.90;;;;;;5041410;28;20151;-30